Grass Rope, South Dakota
Current Conditions -  °F | °C
As of 1:15 PM on Thursday 30 Oct 2014 (Local Time) from K9V9 Reporting Station
Overcast Overcast  
Wind Chill: 41°   Ceiling: 2500
Heat Index: 47°   Visibility: 10mi
Dew Point: 35°   Wind: 15mph
Humidity: 61%   Direction: 350°N
Pressure: 30.27"   Gusts: 26mph
Location:  43.8324°N, 99.5368°W
Report Text: K9V9 301815Z AUTO 35013G23KT 10SM OVC025 09/02 A3027 RMK AO2 T00860015
Loading
Personal Weather Stations






























Interactive Weather Map
Tropical Storm Tracking
New forecast layout! Learn more

10-Day Weather Forecast

Advertisements
Track Severe Weather on mobile